Time;durP1;ratioP1;P1;durP2;ratioP2;P2;SDS_P1;SDS_P2;PMS_P1;PMS_P2;Temp;Humidity;BMP_temperature;BMP_pressure;BME280_temperature;BME280_humidity;BME280_pressure;Samples;Min_cycle;Max_cycle;Signal;HPM_P1;HPM_P2
2023/11/26 00:01:04;;;;;;;5.50;2.13;;;;;;;0.03;100.00;100950.56;4976324;28;20378;-90
2023/11/26 00:03:30;;;;;;;3.90;1.80;;;;;;;0.11;100.00;100942.91;4974719;28;20066;-89
2023/11/26 00:05:55;;;;;;;8.68;2.50;;;;;;;0.10;100.00;100943.72;4976074;28;20019;-89
2023/11/26 00:08:21;;;;;;;8.23;2.80;;;;;;;0.10;100.00;100941.19;4976084;28;20057;-89
2023/11/26 00:10:46;;;;;;;9.60;3.17;;;;;;;0.07;100.00;100936.97;4975003;28;20030;-91
2023/11/26 00:13:12;;;;;;;8.50;3.10;;;;;;;0.03;100.00;100931.97;4975938;28;20046;-89
2023/11/26 00:15:37;;;;;;;7.78;2.80;;;;;;;0.08;100.00;100928.53;4975954;28;20026;-89
2023/11/26 00:18:02;;;;;;;3.78;1.75;;;;;;;0.06;100.00;100921.78;4976134;28;20153;-89
2023/11/26 00:20:28;;;;;;;3.72;1.40;;;;;;;0.01;100.00;100928.59;4974755;28;20074;-89
2023/11/26 00:22:53;;;;;;;5.95;1.50;;;;;;;0.02;100.00;100920.94;4975618;28;20054;-89
2023/11/26 00:25:18;;;;;;;5.90;1.20;;;;;;;0.02;100.00;100928.56;4975526;28;20030;-89
2023/11/26 00:27:44;;;;;;;4.90;1.08;;;;;;;0.02;100.00;100922.66;4975850;28;20469;-89
2023/11/26 00:30:10;;;;;;;6.22;1.25;;;;;;;0.03;100.00;100925.19;4975669;28;20523;-89
2023/11/26 00:32:36;;;;;;;3.72;1.40;;;;;;;-0.02;100.00;100924.38;4974955;28;20577;-89
2023/11/26 00:35:01;;;;;;;3.13;1.23;;;;;;;-0.11;100.00;100912.56;4975127;28;20027;-89
2023/11/26 00:37:27;;;;;;;3.38;1.30;;;;;;;-0.10;100.00;100923.56;4975485;28;20026;-89
2023/11/26 00:39:52;;;;;;;3.72;1.30;;;;;;;-0.14;100.00;100917.69;4975576;28;20019;-91
2023/11/26 00:42:17;;;;;;;4.97;1.42;;;;;;;-0.15;100.00;100915.13;4975241;28;20065;-89
2023/11/26 00:44:43;;;;;;;3.38;1.35;;;;;;;-0.13;100.00;100916.81;4974316;28;20026;-89
2023/11/26 00:47:08;;;;;;;5.70;1.33;;;;;;;-0.22;100.00;100899.09;4975642;28;20038;-89
2023/11/26 00:49:33;;;;;;;4.65;1.33;;;;;;;-0.21;100.00;100910.94;4974109;28;20074;-89
2023/11/26 00:51:59;;;;;;;3.80;1.40;;;;;;;-0.16;100.00;100901.63;4975349;28;20065;-89
2023/11/26 00:54:24;;;;;;;4.47;1.50;;;;;;;-0.16;100.00;100898.25;4975196;28;20034;-88
2023/11/26 00:56:49;;;;;;;10.38;1.60;;;;;;;-0.11;100.00;100894.81;4975345;28;20381;-89
2023/11/26 00:59:15;;;;;;;4.40;1.73;;;;;;;-0.10;100.00;100893.97;4975391;28;20054;-89
2023/11/26 01:01:40;;;;;;;4.22;1.25;;;;;;;-0.13;100.00;100893.13;4975167;28;20081;-89
2023/11/26 01:04:06;;;;;;;10.00;1.45;;;;;;;-0.08;100.00;100889.72;4975101;28;20027;-89
2023/11/26 01:06:32;;;;;;;3.42;1.48;;;;;;;-0.08;100.00;100877.03;4975451;28;20050;-89
2023/11/26 01:08:58;;;;;;;4.25;1.25;;;;;;;-0.02;100.00;100882.06;4975099;28;20033;-89
2023/11/26 01:11:23;;;;;;;5.90;1.73;;;;;;;-0.01;100.00;100878.66;4975058;28;20023;-89
2023/11/26 01:13:48;;;;;;;6.10;1.60;;;;;;;-0.03;100.00;100880.38;4974964;28;20066;-89
2023/11/26 01:16:14;;;;;;;4.47;1.67;;;;;;;-0.01;100.00;100883.75;4975171;28;20019;-89
2023/11/26 01:18:39;;;;;;;5.35;1.58;;;;;;;-0.02;100.00;100882.06;4973566;28;20541;-88
2023/11/26 01:21:06;;;;;;;3.47;1.58;;;;;;;0.04;100.00;100877.81;4973945;28;20019;-89
2023/11/26 01:23:32;;;;;;;4.57;1.67;;;;;;;0.06;100.00;100878.63;4974770;28;20066;-89
2023/11/26 01:25:57;;;;;;;4.15;1.45;;;;;;;0.02;100.00;100882.88;4974653;28;20065;-89
2023/11/26 01:28:23;;;;;;;6.30;2.42;;;;;;;-0.11;100.00;100871.97;4974807;28;20789;-89
2023/11/26 01:30:48;;;;;;;6.07;2.80;;;;;;;-0.11;100.00;100882.13;4974770;28;20367;-89
2023/11/26 01:33:14;;;;;;;4.60;2.50;;;;;;;-0.13;100.00;100873.69;4974661;28;20426;-90
2023/11/26 01:35:40;;;;;;;6.93;2.95;;;;;;;-0.06;100.00;100871.94;4974647;28;20485;-89
2023/11/26 01:38:06;;;;;;;4.63;2.80;;;;;;;0.02;100.00;100879.50;4974601;28;20049;-89
2023/11/26 01:40:38;;;;;;;9.45;3.15;;;;;;;0.00;100.00;100874.47;4973110;28;20027;-89
2023/11/26 01:43:04;;;;;;;6.05;1.92;;;;;;;-0.02;100.00;100877.00;4974407;28;20121;-88
2023/11/26 01:45:30;;;;;;;3.83;2.28;;;;;;;-0.03;100.00;100870.22;4974072;28;20109;-89
2023/11/26 01:47:56;;;;;;;4.93;2.15;;;;;;;-0.02;100.00;100866.00;4974476;28;20023;-89
2023/11/26 01:50:24;;;;;;;3.42;1.73;;;;;;;-0.01;100.00;100872.75;4973015;28;20018;-89
2023/11/26 01:52:50;;;;;;;7.72;2.67;;;;;;;0.02;100.00;100874.44;4974428;28;20101;-90
2023/11/26 01:55:17;;;;;;;4.28;2.08;;;;;;;0.01;100.00;100872.75;4974327;28;20031;-90
2023/11/26 01:57:43;;;;;;;4.78;2.10;;;;;;;0.04;100.00;100870.19;4974338;28;20034;-89
2023/11/26 02:00:11;;;;;;;5.07;2.00;;;;;;;0.10;100.00;100881.16;4974343;28;20019;-88
2023/11/26 02:02:37;;;;;;;4.43;2.13;;;;;;;0.06;100.00;100873.56;4974145;28;20110;-88
2023/11/26 02:05:02;;;;;;;3.15;1.83;;;;;;;0.03;100.00;100868.53;4974224;28;20131;-89
2023/11/26 02:07:27;;;;;;;4.95;2.67;;;;;;;-0.03;100.00;100860.06;4974174;28;20035;-89
2023/11/26 02:09:53;;;;;;;6.32;2.10;;;;;;;0.02;100.00;100860.03;4974332;28;20078;-89
2023/11/26 02:12:18;;;;;;;3.15;2.00;;;;;;;0.03;100.00;100851.59;4974096;28;20019;-88
2023/11/26 02:14:48;;;;;;;6.05;2.10;;;;;;;-0.01;100.00;100848.22;4973977;28;20292;-90
2023/11/26 02:17:14;;;;;;;4.93;1.85;;;;;;;0.04;100.00;100854.97;4974032;28;20489;-89
2023/11/26 02:19:41;;;;;;;3.28;1.38;;;;;;;0.03;100.00;100864.28;4973975;28;20428;-90
2023/11/26 02:22:07;;;;;;;3.20;1.80;;;;;;;0.14;100.00;100844.72;4973722;28;20126;-89
2023/11/26 02:24:46;;;;;;;6.55;3.17;;;;;;;0.27;100.00;100837.88;4973732;28;20023;-89
2023/11/26 02:27:12;;;;;;;4.03;1.40;;;;;;;0.27;100.00;100848.03;4974019;28;20035;-89
2023/11/26 02:29:40;;;;;;;3.15;1.20;;;;;;;0.32;100.00;100845.44;4974121;28;20432;-89
2023/11/26 02:32:07;;;;;;;9.38;1.58;;;;;;;0.33;100.00;100845.41;4972256;28;20022;-89
2023/11/26 02:34:33;;;;;;;4.38;1.10;;;;;;;0.36;100.00;100840.31;4973574;28;20085;-89
2023/11/26 02:36:58;;;;;;;6.13;1.45;;;;;;;0.42;100.00;100839.44;4972238;28;20501;-89
2023/11/26 02:39:24;;;;;;;2.15;1.30;;;;;;;0.45;100.00;100841.09;4972133;28;20462;-89
2023/11/26 02:41:49;;;;;;;5.55;1.38;;;;;;;0.48;100.00;100838.50;4972139;28;20030;-90
2023/11/26 02:44:15;;;;;;;4.78;1.63;;;;;;;0.51;100.00;100835.94;4973354;28;20023;-90
2023/11/26 02:46:42;;;;;;;6.22;1.13;;;;;;;0.53;100.00;100829.16;4973391;28;20158;-88
2023/11/26 02:49:08;;;;;;;9.00;1.85;;;;;;;0.63;100.00;100831.59;4972072;28;20126;-90
2023/11/26 02:51:34;;;;;;;5.28;1.40;;;;;;;0.63;100.00;100818.91;4973106;28;20560;-89
2023/11/26 02:53:59;;;;;;;3.60;1.27;;;;;;;0.60;100.00;100821.44;4973240;28;20027;-89
2023/11/26 02:56:25;;;;;;;4.93;1.50;;;;;;;0.62;100.00;100819.75;4972616;28;20031;-89
2023/11/26 02:58:51;;;;;;;6.80;2.08;;;;;;;0.67;100.00;100816.31;4971950;28;20066;-89
2023/11/26 03:01:19;;;;;;;4.95;2.03;;;;;;;0.74;100.00;100817.94;4972987;28;20102;-89
2023/11/26 03:03:47;;;;;;;5.03;2.25;;;;;;;0.89;100.00;100815.22;4973040;28;20031;-89
2023/11/26 03:06:15;;;;;;;7.93;1.83;;;;;;;0.91;100.00;100813.50;4972035;28;20106;-89
2023/11/26 03:08:43;;;;;;;4.82;1.13;;;;;;;0.88;100.00;100811.00;4971799;28;20027;-89
2023/11/26 03:13:52;;;;;;;3.55;1.77;;;;;;;0.97;100.00;100810.03;4973073;28;20034;-91
2023/11/26 03:16:18;;;;;;;4.88;2.10;;;;;;;0.96;100.00;100809.22;4972969;28;20456;-91
2023/11/26 03:18:43;;;;;;;3.08;1.80;;;;;;;0.92;100.00;100796.56;4973051;28;20180;-89
2023/11/26 03:21:15;;;;;;;3.58;2.17;;;;;;;0.99;100.00;100808.31;4972861;28;20023;-89
2023/11/26 03:23:41;;;;;;;5.07;2.10;;;;;;;0.98;100.00;100802.41;4972545;28;20027;-89
2023/11/26 03:26:06;;;;;;;8.18;2.22;;;;;;;0.96;100.00;100798.22;4972828;28;20109;-91
2023/11/26 03:28:32;;;;;;;7.47;2.60;;;;;;;0.93;100.00;100794.00;4971548;28;20027;-90
2023/11/26 03:30:57;;;;;;;4.80;2.03;;;;;;;1.00;100.00;100788.00;4972901;28;20022;-91
2023/11/26 03:33:24;;;;;;;7.10;2.05;;;;;;;1.02;100.00;100778.63;4972655;28;20027;-91
2023/11/26 03:35:50;;;;;;;7.80;4.78;;;;;;;1.07;100.00;100773.47;4971529;28;20096;-91
2023/11/26 03:38:17;;;;;;;4.53;2.17;;;;;;;1.08;100.00;100776.88;4972861;28;20029;-90
2023/11/26 03:40:43;;;;;;;4.70;1.70;;;;;;;1.09;100.00;100774.31;4971409;28;20122;-91
2023/11/26 03:43:08;;;;;;;3.63;2.00;;;;;;;1.11;100.00;100772.59;4972666;28;20182;-91
2023/11/26 03:45:33;;;;;;;6.50;2.05;;;;;;;1.14;100.00;100771.69;4972572;28;20027;-91
2023/11/26 03:47:59;;;;;;;6.53;2.30;;;;;;;1.13;100.00;100758.16;4971717;28;20077;-91
2023/11/26 03:50:24;;;;;;;3.97;1.90;;;;;;;1.11;100.00;100759.88;4972822;28;20031;-91
2023/11/26 03:52:50;;;;;;;4.03;1.90;;;;;;;1.17;100.00;100758.94;4972627;28;20031;-91
2023/11/26 03:55:15;;;;;;;5.93;1.95;;;;;;;1.18;100.00;100764.03;4972734;28;20528;-90
2023/11/26 03:57:43;;;;;;;6.07;2.35;;;;;;;1.22;100.00;100769.88;4972668;28;20027;-90
2023/11/26 04:00:09;;;;;;;2.85;1.85;;;;;;;1.21;100.00;100763.97;4972671;28;20113;-91
2023/11/26 04:02:35;;;;;;;6.85;1.73;;;;;;;1.21;100.00;100763.97;4972442;28;20031;-90
2023/11/26 04:05:01;;;;;;;7.88;2.42;;;;;;;1.21;100.00;100763.97;4972699;28;20429;-90
2023/11/26 04:07:27;;;;;;;6.85;2.47;;;;;;;1.22;100.00;100762.25;4973707;28;20026;-90
2023/11/26 04:09:52;;;;;;;7.57;2.00;;;;;;;1.20;100.00;100759.75;4976926;28;20491;-90
2023/11/26 04:12:18;;;;;;;4.88;2.20;;;;;;;1.23;100.00;100767.34;4976447;28;20058;-90
2023/11/26 04:14:57;;;;;;;4.13;1.67;;;;;;;1.26;100.00;100763.91;4976091;28;20027;-90
2023/11/26 04:17:27;;;;;;;8.38;2.30;;;;;;;1.14;100.00;100767.44;4976149;28;20154;-90
2023/11/26 04:19:53;;;;;;;4.68;1.75;;;;;;;1.22;100.00;100764.81;4976331;28;20458;-91
2023/11/26 04:22:20;;;;;;;4.75;2.10;;;;;;;1.23;100.00;100762.25;4976145;28;20048;-91
2023/11/26 04:24:45;;;;;;;3.38;1.45;;;;;;;1.26;100.00;100764.75;4976038;28;20116;-91
2023/11/26 04:27:11;;;;;;;8.13;2.00;;;;;;;1.33;100.00;100762.13;4976149;28;20027;-91
2023/11/26 04:29:36;;;;;;;6.15;2.25;;;;;;;1.37;100.00;100754.44;4975981;28;20037;-91
2023/11/26 04:32:02;;;;;;;5.53;1.73;;;;;;;1.36;100.00;100746.81;4975950;28;20030;-91
2023/11/26 04:34:29;;;;;;;8.18;2.33;;;;;;;1.49;100.00;100754.25;4975790;28;20027;-91
2023/11/26 04:36:54;;;;;;;3.95;2.00;;;;;;;1.55;100.00;100749.94;4976000;28;20030;-90
2023/11/26 04:39:19;;;;;;;5.10;1.73;;;;;;;1.54;100.00;100744.00;4975760;28;20074;-91
2023/11/26 04:41:45;;;;;;;7.72;1.90;;;;;;;1.61;100.00;100747.28;4974483;28;20081;-91
2023/11/26 04:44:10;;;;;;;7.78;1.60;;;;;;;1.65;100.00;100739.59;4974361;28;20516;-91
2023/11/26 04:46:36;;;;;;;2.78;1.70;;;;;;;1.63;100.00;100736.22;4976013;28;20413;-91
2023/11/26 04:49:01;;;;;;;3.50;2.10;;;;;;;1.62;100.00;100724.38;4975805;28;20026;-91
2023/11/26 04:51:27;;;;;;;6.68;1.85;;;;;;;1.69;100.00;100725.97;4974376;28;20035;-91
2023/11/26 04:53:53;;;;;;;10.05;3.08;;;;;;;1.78;100.00;100724.13;4975798;28;20248;-91
2023/11/26 04:56:19;;;;;;;6.03;1.50;;;;;;;1.74;100.00;100727.59;4974324;28;20035;-91
2023/11/26 04:58:45;;;;;;;4.47;1.45;;;;;;;1.75;100.00;100726.72;4975187;28;20500;-91
2023/11/26 05:01:16;;;;;;;5.70;1.67;;;;;;;1.82;100.00;100725.75;4975082;28;20500;-91
2023/11/26 05:03:42;;;;;;;6.18;1.58;;;;;;;1.83;100.00;100723.19;4975134;28;20367;-91
2023/11/26 05:06:08;;;;;;;8.38;2.85;;;;;;;1.92;100.00;100727.28;4973885;28;20031;-90
2023/11/26 05:08:33;;;;;;;5.05;1.70;;;;;;;1.98;100.00;100722.09;4975049;28;20125;-91
2023/11/26 05:11:01;;;;;;;4.43;1.83;;;;;;;2.00;100.00;100724.59;4975001;28;20536;-91
2023/11/26 05:13:26;;;;;;;4.15;1.60;;;;;;;2.02;100.00;100718.59;4973676;28;20027;-91
2023/11/26 05:15:52;;;;;;;6.25;2.90;;;;;;;2.02;100.00;100712.69;4975032;28;20436;-91
2023/11/26 05:18:18;;;;;;;3.15;1.42;;;;;;;2.05;100.00;100717.72;4974957;28;20034;-91
2023/11/26 05:20:43;;;;;;;4.93;1.70;;;;;;;2.04;100.00;100716.88;4972839;28;20042;-91
2023/11/26 05:23:09;;;;;;;5.28;1.42;;;;;;;2.09;100.00;100710.00;4974613;28;20070;-91
2023/11/26 05:25:34;;;;;;;5.20;1.98;;;;;;;2.07;100.00;100716.84;4973355;28;20082;-91
2023/11/26 05:28:00;;;;;;;6.82;2.15;;;;;;;2.10;100.00;100721.88;4974698;28;20473;-91
2023/11/26 05:30:25;;;;;;;6.53;1.77;;;;;;;2.12;100.00;100725.22;4973534;28;20034;-91
2023/11/26 05:32:51;;;;;;;10.43;2.25;;;;;;;2.15;100.00;100716.69;4974612;28;20034;-91
2023/11/26 05:35:16;;;;;;;5.85;1.65;;;;;;;2.19;100.00;100714.91;4973293;28;20481;-92
2023/11/26 05:37:42;;;;;;;3.88;1.48;;;;;;;2.24;100.00;100702.94;4973266;28;20038;-91
2023/11/26 05:40:10;;;;;;;7.18;1.70;;;;;;;2.28;100.00;100710.50;4974744;28;20367;-91
2023/11/26 05:42:38;;;;;;;4.22;1.55;;;;;;;2.31;100.00;100699.41;4973241;28;20074;-91
2023/11/26 05:45:04;;;;;;;6.05;1.67;;;;;;;2.32;100.00;100696.00;4974191;28;20026;-91
2023/11/26 05:47:32;;;;;;;10.65;2.30;;;;;;;2.31;100.00;100694.31;4974407;28;20503;-91
2023/11/26 05:49:59;;;;;;;5.35;2.47;;;;;;;2.32;100.00;100688.38;4974497;28;20038;-90
2023/11/26 05:52:24;;;;;;;5.93;2.42;;;;;;;2.36;100.00;100684.88;4973164;28;20050;-91
2023/11/26 05:54:51;;;;;;;6.00;2.28;;;;;;;2.41;100.00;100680.53;4974322;28;20102;-91
2023/11/26 05:57:16;;;;;;;6.82;1.65;;;;;;;2.25;100.00;100680.00;4974363;28;20023;-91
2023/11/26 05:59:42;;;;;;;6.55;1.73;;;;;;;2.26;100.00;100679.13;4974225;28;20393;-91
2023/11/26 06:02:07;;;;;;;4.57;2.08;;;;;;;2.32;100.00;100678.19;4974102;28;20082;-90
2023/11/26 06:04:33;;;;;;;6.70;2.50;;;;;;;2.29;100.00;100675.66;4973912;28;20485;-91
2023/11/26 06:06:58;;;;;;;5.05;1.80;;;;;;;2.40;100.00;100678.84;4974107;28;20481;-91
2023/11/26 06:09:24;;;;;;;7.25;2.05;;;;;;;2.43;100.00;100673.69;4974477;28;20496;-91
2023/11/26 06:11:50;;;;;;;13.98;2.67;;;;;;;2.47;100.00;100680.41;4974355;28;20027;-91
2023/11/26 06:14:15;;;;;;;4.72;1.98;;;;;;;2.47;100.00;100672.78;4974211;28;20456;-91
2023/11/26 06:16:42;;;;;;;5.25;2.60;;;;;;;2.43;100.00;100673.69;4974290;28;20034;-90
2023/11/26 06:19:07;;;;;;;6.22;2.03;;;;;;;2.40;100.00;100663.56;4974376;28;20026;-91
2023/11/26 06:21:32;;;;;;;2.50;1.60;;;;;;;2.49;100.00;100660.84;4972686;28;20031;-91
2023/11/26 06:23:58;;;;;;;9.05;2.22;;;;;;;2.46;100.00;100663.44;4974180;28;20557;-91
2023/11/26 06:26:24;;;;;;;6.63;2.30;;;;;;;2.53;100.00;100665.00;4974005;28;20051;-91
2023/11/26 06:28:49;;;;;;;5.07;2.05;;;;;;;2.51;100.00;100656.56;4974127;28;20456;-92
2023/11/26 06:31:19;;;;;;;6.75;2.28;;;;;;;2.56;100.00;100654.75;4971615;28;20019;-92
2023/11/26 06:33:44;;;;;;;6.78;1.98;;;;;;;2.61;100.00;100664.84;4973767;28;20300;-90
2023/11/26 06:36:18;;;;;;;4.97;2.00;;;;;;;2.61;100.00;100662.31;4973759;28;20228;-91
2023/11/26 06:38:43;;;;;;;4.95;2.00;;;;;;;2.60;100.00;100660.63;4972453;28;20031;-91
2023/11/26 06:41:09;;;;;;;7.80;2.88;;;;;;;2.60;100.00;100655.50;4973657;28;20031;-90
2023/11/26 06:43:34;;;;;;;7.90;2.97;;;;;;;2.62;100.00;100658.03;4972428;28;20023;-89
2023/11/26 06:45:59;;;;;;;10.98;3.33;;;;;;;2.64;100.00;100654.59;4972780;28;20031;-89
2023/11/26 06:48:25;;;;;;;6.70;3.25;;;;;;;2.68;100.00;100650.25;4973522;28;20031;-90
2023/11/26 06:50:50;;;;;;;8.02;2.88;;;;;;;2.65;100.00;100652.88;4973392;28;20058;-89
2023/11/26 06:53:15;;;;;;;10.00;2.58;;;;;;;2.71;100.00;100655.31;4973818;28;20039;-92
2023/11/26 06:55:40;;;;;;;5.72;2.80;;;;;;;2.73;100.00;100653.53;4973603;28;20054;-91
2023/11/26 06:58:06;;;;;;;9.32;3.15;;;;;;;2.71;100.00;100653.59;4972180;28;20125;-90
2023/11/26 07:00:32;;;;;;;8.68;3.35;;;;;;;2.74;100.00;100657.78;4971953;28;20023;-90
2023/11/26 07:02:57;;;;;;;7.35;2.88;;;;;;;2.75;100.00;100659.44;4972241;28;20034;-90
2023/11/26 07:05:22;;;;;;;12.77;2.83;;;;;;;2.74;100.00;100648.41;4973255;28;20030;-90
2023/11/26 07:07:48;;;;;;;10.30;3.03;;;;;;;2.73;100.00;100646.75;4972064;28;20482;-89
2023/11/26 07:10:14;;;;;;;12.30;3.50;;;;;;;2.72;100.00;100642.50;4973084;28;20119;-90
2023/11/26 07:12:39;;;;;;;8.32;2.97;;;;;;;2.78;100.00;100636.47;4973289;28;20536;-90
2023/11/26 07:15:05;;;;;;;6.05;2.55;;;;;;;2.80;100.00;100632.13;4973259;28;20027;-90
2023/11/26 07:17:31;;;;;;;8.82;2.85;;;;;;;2.79;100.00;100631.31;4972000;28;20478;-90
2023/11/26 07:19:56;;;;;;;6.57;2.53;;;;;;;2.83;100.00;100631.22;4973045;28;20027;-90
2023/11/26 07:22:22;;;;;;;7.85;3.30;;;;;;;2.83;100.00;100627.00;4972649;28;20077;-90
2023/11/26 07:24:48;;;;;;;7.38;3.22;;;;;;;2.88;100.00;100635.38;4972808;28;20034;-91
2023/11/26 07:27:14;;;;;;;7.30;2.88;;;;;;;2.90;100.00;100633.63;4971812;28;20049;-90
2023/11/26 07:29:40;;;;;;;6.47;3.40;;;;;;;2.93;100.00;100633.56;4972911;28;20031;-90
2023/11/26 07:32:06;;;;;;;6.72;3.28;;;;;;;2.88;100.00;100635.38;4972774;28;20023;-90
2023/11/26 07:34:32;;;;;;;8.68;3.63;;;;;;;2.88;100.00;100629.41;4972781;28;20027;-90
2023/11/26 07:36:57;;;;;;;6.30;3.78;;;;;;;2.90;100.00;100631.09;4971406;28;20027;-89
2023/11/26 07:39:22;;;;;;;8.68;4.40;;;;;;;2.96;100.00;100623.28;4973097;28;20031;-90
2023/11/26 07:41:48;;;;;;;7.70;3.55;;;;;;;2.85;100.00;100624.41;4972772;28;20030;-90
2023/11/26 07:44:13;;;;;;;10.93;4.60;;;;;;;2.88;100.00;100622.63;4976525;28;20076;-90
2023/11/26 07:46:40;;;;;;;8.63;4.32;;;;;;;2.93;100.00;100631.00;4975379;28;20034;-89
2023/11/26 07:49:06;;;;;;;8.95;4.47;;;;;;;2.91;100.00;100629.38;4975235;28;20031;-90
2023/11/26 07:51:31;;;;;;;9.13;5.20;;;;;;;2.85;100.00;100625.22;4976903;28;20413;-90
2023/11/26 07:53:57;;;;;;;10.15;4.65;;;;;;;2.92;100.00;100626.75;4976566;28;20487;-90
2023/11/26 07:56:22;;;;;;;11.10;4.65;;;;;;;2.89;100.00;100626.84;4976307;28;20421;-90
2023/11/26 07:58:47;;;;;;;7.95;4.88;;;;;;;2.89;100.00;100626.84;4976450;28;20078;-90
2023/11/26 08:01:13;;;;;;;11.95;4.78;;;;;;;2.94;100.00;100629.28;4976409;28;20038;-90
2023/11/26 08:03:39;;;;;;;11.25;4.95;;;;;;;2.98;100.00;100630.91;4974941;28;20121;-90
2023/11/26 08:06:06;;;;;;;10.73;4.65;;;;;;;2.84;100.00;100620.19;4976297;28;20042;-90
2023/11/26 08:08:40;;;;;;;10.60;5.15;;;;;;;2.96;100.00;100618.19;4974815;28;20030;-90
2023/11/26 08:11:08;;;;;;;10.35;4.97;;;;;;;2.94;100.00;100619.09;4976080;28;20033;-90
2023/11/26 08:13:35;;;;;;;7.22;4.25;;;;;;;2.96;100.00;100615.63;4975180;28;20102;-90
2023/11/26 08:16:00;;;;;;;8.73;4.93;;;;;;;2.94;100.00;100607.19;4974749;28;20030;-90
2023/11/26 08:18:26;;;;;;;11.60;4.32;;;;;;;2.98;100.00;100603.69;4976128;28;20026;-90
2023/11/26 08:20:53;;;;;;;7.03;4.05;;;;;;;3.07;100.00;100612.81;4975963;28;20131;-90
2023/11/26 08:23:19;;;;;;;10.10;4.82;;;;;;;3.01;100.00;100612.97;4975543;28;20039;-90
2023/11/26 08:25:44;;;;;;;13.30;5.57;;;;;;;3.03;100.00;100610.41;4975796;28;20496;-89
2023/11/26 08:28:11;;;;;;;7.32;4.45;;;;;;;3.10;100.00;100611.94;4975859;28;20074;-89
2023/11/26 08:30:47;;;;;;;8.93;4.55;;;;;;;3.01;100.00;100607.88;4975853;28;20030;-90
2023/11/26 08:33:15;;;;;;;11.27;4.88;;;;;;;2.90;100.00;100603.03;4975712;28;20030;-90
2023/11/26 08:35:41;;;;;;;10.43;4.40;;;;;;;2.92;100.00;100603.00;4975692;28;20042;-90
2023/11/26 08:38:07;;;;;;;9.18;4.03;;;;;;;2.95;100.00;100601.22;4975657;28;20026;-90
2023/11/26 08:40:35;;;;;;;8.52;3.92;;;;;;;2.97;100.00;100612.19;4974499;28;20381;-90
2023/11/26 08:43:02;;;;;;;7.45;4.25;;;;;;;3.06;100.00;100602.69;4975340;28;20464;-90
2023/11/26 08:45:28;;;;;;;8.50;4.25;;;;;;;3.02;100.00;100595.97;4975396;28;20037;-90
2023/11/26 08:47:55;;;;;;;11.18;4.93;;;;;;;3.03;100.00;100600.22;4974092;28;20401;-90
2023/11/26 08:50:21;;;;;;;20.08;6.85;;;;;;;3.06;100.00;100597.56;4975592;28;20023;-90
2023/11/26 08:52:46;;;;;;;13.25;6.05;;;;;;;3.00;100.00;100593.47;4974244;28;20041;-90
2023/11/26 08:55:13;;;;;;;11.77;5.53;;;;;;;2.98;100.00;100596.03;4974230;28;20046;-90
2023/11/26 08:57:39;;;;;;;11.10;5.53;;;;;;;2.93;100.00;100592.78;4975078;28;20462;-91
2023/11/26 09:00:09;;;;;;;11.90;5.30;;;;;;;2.97;100.00;100589.25;4975432;28;20038;-91
2023/11/26 09:02:36;;;;;;;15.65;6.07;;;;;;;2.96;100.00;100586.75;4973929;28;20118;-91
2023/11/26 09:05:03;;;;;;;17.67;6.55;;;;;;;3.04;100.00;100586.56;4973725;28;20034;-91
2023/11/26 09:07:28;;;;;;;10.55;5.50;;;;;;;3.03;100.00;100588.28;4975216;28;20023;-91
2023/11/26 09:09:54;;;;;;;8.32;5.25;;;;;;;3.04;100.00;100573.81;4975077;28;20027;-91
2023/11/26 09:12:22;;;;;;;15.13;6.30;;;;;;;3.09;100.00;100574.53;4975137;28;20015;-90
2023/11/26 09:14:48;;;;;;;14.30;7.15;;;;;;;3.09;100.00;100570.28;4974921;28;20291;-91
2023/11/26 09:17:13;;;;;;;14.43;7.05;;;;;;;3.09;100.00;100562.63;4974816;28;20110;-91
2023/11/26 09:19:39;;;;;;;10.98;6.03;;;;;;;3.18;100.00;100556.47;4975034;28;20033;-90
2023/11/26 09:22:04;;;;;;;11.65;5.60;;;;;;;3.18;100.00;100553.91;4973339;28;20126;-91
2023/11/26 09:24:30;;;;;;;14.90;6.28;;;;;;;3.20;100.00;100549.63;4974777;28;20038;-91
2023/11/26 09:26:55;;;;;;;14.63;6.88;;;;;;;3.21;100.00;100546.19;4974518;28;20034;-91
2023/11/26 09:29:20;;;;;;;15.07;6.75;;;;;;;3.15;100.00;100552.28;4973513;28;20019;-91
2023/11/26 09:31:46;;;;;;;12.25;6.57;;;;;;;3.18;100.00;100546.28;4973391;28;20086;-91
2023/11/26 09:34:11;;;;;;;9.90;6.57;;;;;;;3.20;100.00;100547.06;4974597;28;20026;-91
2023/11/26 09:36:41;;;;;;;12.88;6.43;;;;;;;3.27;100.00;100555.38;4974754;28;20034;-91
2023/11/26 09:39:07;;;;;;;17.77;7.38;;;;;;;3.24;100.00;100556.31;4973540;28;20030;-91
2023/11/26 09:41:32;;;;;;;15.02;7.13;;;;;;;3.28;100.00;100547.69;4973018;28;20504;-91
2023/11/26 09:43:58;;;;;;;13.82;7.13;;;;;;;3.32;100.00;100546.75;4973754;28;20038;-91
2023/11/26 09:46:25;;;;;;;18.27;6.93;;;;;;;3.28;100.00;100550.25;4973309;28;20057;-91
2023/11/26 09:48:51;;;;;;;13.13;7.90;;;;;;;3.34;100.00;100541.59;4974585;28;20038;-90
2023/11/26 09:51:18;;;;;;;17.67;6.78;;;;;;;3.34;100.00;100546.69;4974627;28;20031;-91
2023/11/26 09:53:45;;;;;;;13.32;7.18;;;;;;;3.34;100.00;100537.34;4973059;28;20126;-91
2023/11/26 09:56:12;;;;;;;13.73;7.32;;;;;;;3.35;100.00;100544.13;4974598;28;20023;-91
2023/11/26 09:58:38;;;;;;;12.43;7.53;;;;;;;3.39;100.00;100538.06;4973301;28;20105;-89
2023/11/26 10:01:06;;;;;;;12.55;7.43;;;;;;;3.42;100.00;100537.16;4974702;28;20033;-92
2023/11/26 10:03:31;;;;;;;18.98;7.25;;;;;;;3.39;100.00;100540.63;4974239;28;20499;-91
2023/11/26 10:06:09;;;;;;;15.38;7.65;;;;;;;3.50;100.00;100536.94;4972932;28;20027;-92
2023/11/26 10:08:35;;;;;;;16.60;7.15;;;;;;;3.45;100.00;100529.41;4972906;28;20063;-92
2023/11/26 10:11:00;;;;;;;18.63;8.45;;;;;;;3.51;100.00;100530.94;4972970;28;20492;-91
2023/11/26 10:13:38;;;;;;;12.38;7.30;;;;;;;3.58;100.00;100538.41;4974249;28;20035;-92
2023/11/26 10:16:04;;;;;;;11.77;7.05;;;;;;;3.63;100.00;100531.47;4972873;28;20027;-91
2023/11/26 10:18:41;;;;;;;15.07;7.70;;;;;;;3.63;100.00;100520.41;4974076;28;20027;-92
2023/11/26 10:21:08;;;;;;;15.65;7.22;;;;;;;3.61;100.00;100509.44;4973956;28;20043;-91
2023/11/26 10:23:38;;;;;;;17.27;7.95;;;;;;;3.73;100.00;100515.88;4972209;28;20034;-91
2023/11/26 10:26:18;;;;;;;16.10;8.52;;;;;;;3.73;100.00;100508.22;4973844;28;20063;-91
2023/11/26 10:29:00;;;;;;;13.98;7.88;;;;;;;3.82;100.00;100508.81;4973925;28;20500;-91
2023/11/26 10:31:26;;;;;;;14.32;7.22;;;;;;;3.88;100.00;100501.84;4973787;28;20026;-91
2023/11/26 10:33:51;;;;;;;13.85;7.50;;;;;;;3.90;100.00;100503.47;4973565;28;20018;-91
2023/11/26 10:36:33;;;;;;;11.05;7.50;;;;;;;3.98;100.00;100498.16;4973580;28;20038;-92
2023/11/26 10:39:04;;;;;;;17.00;8.05;;;;;;;4.03;100.00;100498.88;4972125;28;20032;-91
2023/11/26 10:41:33;;;;;;;19.33;8.73;;;;;;;3.99;100.00;100495.56;4972103;28;20035;-91
2023/11/26 10:43:58;;;;;;;17.10;9.07;;;;;;;4.10;100.00;100496.94;4972081;28;20034;-91
2023/11/26 10:46:25;;;;;;;17.77;8.43;;;;;;;4.10;100.00;100502.91;4972146;28;20030;-91
2023/11/26 10:48:59;;;;;;;14.38;8.50;;;;;;;4.10;100.00;100496.94;4973616;28;20023;-92
2023/11/26 10:51:27;;;;;;;12.95;8.73;;;;;;;4.10;100.00;100494.41;4973171;28;20031;-91
2023/11/26 10:54:25;;;;;;;15.43;9.27;;;;;;;4.15;100.00;100490.84;4971869;28;20392;-91
2023/11/26 10:56:55;;;;;;;16.70;9.00;;;;;;;4.19;100.00;100484.75;4961637;28;20089;-91
2023/11/26 10:59:21;;;;;;;11.52;8.45;;;;;;;4.22;100.00;100482.13;4972923;28;20220;-92
2023/11/26 11:01:48;;;;;;;21.40;9.00;;;;;;;4.19;100.00;100479.63;4971866;28;20034;-91
2023/11/26 11:04:15;;;;;;;17.08;9.05;;;;;;;4.22;100.00;100476.19;4973291;28;20037;-92
2023/11/26 11:06:43;;;;;;;12.52;8.18;;;;;;;4.31;100.00;100472.47;4971829;28;20027;-91
2023/11/26 11:09:13;;;;;;;15.07;8.98;;;;;;;4.29;100.00;100458.06;4971750;28;20019;-91
2023/11/26 11:12:16;;;;;;;26.27;9.93;;;;;;;4.39;100.00;100462.84;4971920;28;20065;-91
2023/11/26 11:14:42;;;;;;;20.10;9.30;;;;;;;4.38;100.00;100456.09;4897442;29;20032;-91
2023/11/26 11:17:08;;;;;;;15.38;8.55;;;;;;;4.41;100.00;100448.31;4912693;29;20123;-91
2023/11/26 11:19:50;;;;;;;19.00;9.48;;;;;;;4.45;100.00;100455.00;4930197;28;20121;-91
2023/11/26 11:22:16;;;;;;;;;;;;;;;4.49;100.00;100454.03;4973368;28;20117;-91